createdAt,value
2023-06-11T00:03:22.360Z,30.23
2023-06-11T00:07:06.540Z,26.52
2023-06-11T00:10:48.535Z,27.30
2023-06-11T00:14:30.389Z,32.17
2023-06-11T00:18:13.155Z,25.05
2023-06-11T00:21:57.318Z,30.88
2023-06-11T00:25:39.275Z,24.40
2023-06-11T00:29:21.199Z,23.15
2023-06-11T00:33:03.059Z,26.95
2023-06-11T00:36:46.055Z,29.98
2023-06-11T00:40:27.974Z,30.27
2023-06-11T00:44:10.291Z,30.50
2023-06-11T00:47:52.284Z,33.08
2023-06-11T00:51:34.988Z,31.15
2023-06-11T00:55:17.537Z,27.45
2023-06-11T00:59:00.935Z,34.42
2023-06-11T01:02:58.451Z,28.23
2023-06-11T01:06:47.425Z,34.03
2023-06-11T01:10:30.881Z,31.33
2023-06-11T01:14:14.405Z,31.52
2023-06-11T01:18:03.352Z,32.17
2023-06-11T01:22:00.464Z,32.20
2023-06-11T01:25:59.146Z,32.80
2023-06-11T01:29:46.673Z,32.83
2023-06-11T01:33:28.953Z,30.38
2023-06-11T01:37:10.881Z,32.67
2023-06-11T01:40:56.939Z,30.73
2023-06-11T01:44:38.908Z,30.63
2023-06-11T01:48:21.616Z,32.78
2023-06-11T01:52:03.627Z,37.08
2023-06-11T01:55:45.636Z,33.45
2023-06-11T01:59:27.507Z,39.60
2023-06-11T02:03:09.721Z,37.10
2023-06-11T02:06:51.759Z,36.80
2023-06-11T02:10:33.599Z,38.53
2023-06-11T02:14:15.613Z,36.63
2023-06-11T02:17:57.575Z,40.13
2023-06-11T02:21:39.432Z,40.45
2023-06-11T02:25:21.451Z,35.92
2023-06-11T02:29:03.331Z,36.90
2023-06-11T02:32:46.120Z,42.75
2023-06-11T02:36:28.249Z,43.70
2023-06-11T02:40:12.988Z,40.92
2023-06-11T02:43:55.144Z,44.42
2023-06-11T02:47:37.065Z,43.80
2023-06-11T02:51:19.012Z,43.92
2023-06-11T02:55:00.940Z,46.60
2023-06-11T02:58:42.803Z,46.35
2023-06-11T03:02:24.645Z,45.67
2023-06-11T03:06:06.597Z,40.05
2023-06-11T03:09:48.420Z,44.58
2023-06-11T03:13:30.432Z,43.92
2023-06-11T03:17:12.255Z,41.83
2023-06-11T03:20:54.121Z,42.22
2023-06-11T03:24:36.268Z,43.33
2023-06-11T03:28:18.241Z,43.35
2023-06-11T03:32:00.049Z,41.70
2023-06-11T03:35:41.902Z,49.40
2023-06-11T03:39:23.699Z,41.28
2023-06-11T03:43:05.626Z,43.20
2023-06-11T03:46:48.269Z,43.08
2023-06-11T03:50:30.243Z,36.63
2023-06-11T03:54:12.107Z,41.45
2023-06-11T03:57:54.085Z,38.53
2023-06-11T04:01:36.219Z,43.55
2023-06-11T04:05:18.208Z,40.10
2023-06-11T04:09:00.036Z,41.22
2023-06-11T04:12:41.950Z,46.33
2023-06-11T04:16:24.041Z,42.30
2023-06-11T04:20:07.154Z,42.88
2023-06-11T04:23:49.122Z,43.83
2023-06-11T04:27:34.762Z,43.83
2023-06-11T04:31:16.640Z,44.03
2023-06-11T04:34:58.692Z,42.97
2023-06-11T04:38:45.815Z,39.85
2023-06-11T04:42:28.552Z,39.83
2023-06-11T04:46:10.654Z,38.80
2023-06-11T04:49:53.174Z,42.85
2023-06-11T04:53:38.549Z,38.15
2023-06-11T04:57:21.524Z,38.00
2023-06-11T05:01:06.347Z,39.78
2023-06-11T05:04:50.731Z,41.55
2023-06-11T05:08:33.676Z,42.50
2023-06-11T05:12:15.640Z,41.80
2023-06-11T05:15:58.925Z,43.30
2023-06-11T05:19:40.934Z,36.88
2023-06-11T05:23:29.424Z,36.35
2023-06-11T05:27:11.433Z,42.08
2023-06-11T05:30:53.281Z,37.88
2023-06-11T05:34:35.578Z,38.28
2023-06-11T05:38:18.479Z,35.95
2023-06-11T05:42:00.339Z,38.33
2023-06-11T05:45:49.766Z,37.72
2023-06-11T05:49:31.992Z,35.70
2023-06-11T05:53:15.011Z,37.90
2023-06-11T05:56:58.161Z,32.67
2023-06-11T06:00:39.986Z,34.10
2023-06-11T06:04:21.983Z,35.58
2023-06-11T06:08:04.083Z,35.35
2023-06-11T06:11:45.964Z,34.30
2023-06-11T06:15:27.781Z,35.80
2023-06-11T06:19:10.302Z,35.20
2023-06-11T06:22:52.115Z,34.88
2023-06-11T06:26:34.024Z,30.27
2023-06-11T06:30:16.067Z,36.63
2023-06-11T06:33:57.966Z,32.47
2023-06-11T06:37:39.796Z,33.85
2023-06-11T06:41:21.710Z,34.95
2023-06-11T06:45:03.683Z,34.25
2023-06-11T06:48:45.832Z,38.17
2023-06-11T06:52:28.814Z,35.25
2023-06-11T06:56:10.898Z,40.97
2023-06-11T06:59:52.729Z,37.80
2023-06-11T07:03:37.572Z,36.65
2023-06-11T07:07:19.434Z,31.80
2023-06-11T07:11:01.558Z,33.53
2023-06-11T07:14:43.403Z,33.05
2023-06-11T07:18:26.271Z,35.20
2023-06-11T07:22:08.108Z,35.15
2023-06-11T07:25:51.220Z,31.80
2023-06-11T07:29:33.900Z,30.85
2023-06-11T07:33:18.254Z,32.63
2023-06-11T07:37:00.210Z,33.88
2023-06-11T07:40:42.096Z,29.92
2023-06-11T07:44:23.995Z,35.53
2023-06-11T07:48:06.289Z,30.63
2023-06-11T07:51:48.106Z,35.97
2023-06-11T07:55:30.040Z,31.23
2023-06-11T07:59:11.862Z,30.42
2023-06-11T08:02:54.081Z,31.58
2023-06-11T08:06:37.153Z,32.42
2023-06-11T08:10:19.592Z,34.47
2023-06-11T08:14:01.494Z,31.63
2023-06-11T08:17:43.375Z,31.65
2023-06-11T08:21:26.275Z,29.98
2023-06-11T08:25:10.671Z,32.65
2023-06-11T08:28:52.536Z,29.05
2023-06-11T08:32:34.569Z,33.05
2023-06-11T08:36:16.560Z,27.48
2023-06-11T08:39:58.422Z,34.60
2023-06-11T08:43:40.360Z,29.35
2023-06-11T08:47:23.691Z,26.55
2023-06-11T08:51:09.705Z,30.25
2023-06-11T08:54:51.805Z,30.65
2023-06-11T08:58:35.397Z,30.25
2023-06-11T09:02:18.260Z,27.08
2023-06-11T09:06:01.117Z,32.00
2023-06-11T09:09:43.014Z,34.70
2023-06-11T09:13:28.815Z,31.30
2023-06-11T09:17:16.606Z,34.28
2023-06-11T09:21:02.018Z,26.85
2023-06-11T09:24:44.111Z,29.33
2023-06-11T09:28:38.474Z,30.08
2023-06-11T09:32:33.493Z,29.88
2023-06-11T09:39:59.026Z,26.98
2023-06-11T09:43:42.161Z,29.98
2023-06-11T09:47:24.649Z,29.83
2023-06-11T09:51:10.963Z,29.35
2023-06-11T09:58:35.140Z,36.80
2023-06-11T10:02:17.300Z,33.33
2023-06-11T10:06:00.153Z,33.97
2023-06-11T10:09:43.901Z,35.85
2023-06-11T10:13:30.445Z,34.53
2023-06-11T10:17:12.396Z,37.58
2023-06-11T10:21:01.358Z,37.65
2023-06-11T10:24:43.394Z,35.85
2023-06-11T10:28:42.398Z,37.15
2023-06-11T10:32:24.546Z,37.53
2023-06-11T10:36:06.519Z,41.10
2023-06-11T10:39:51.940Z,46.38
2023-06-11T10:43:37.275Z,41.00
2023-06-11T10:47:19.157Z,44.33
2023-06-11T10:51:05.083Z,41.28
2023-06-11T10:54:51.805Z,40.92
2023-06-11T10:58:34.903Z,40.30
2023-06-11T11:02:17.526Z,42.20
2023-06-11T11:05:59.927Z,42.28
2023-06-11T11:09:41.798Z,37.63
2023-06-11T11:13:24.075Z,39.58
2023-06-11T11:17:06.753Z,42.45
2023-06-11T11:20:48.688Z,35.92
2023-06-11T11:24:38.303Z,37.63
2023-06-11T11:28:22.523Z,38.58
2023-06-11T11:32:04.997Z,39.67
2023-06-11T11:35:49.703Z,36.88
2023-06-11T11:39:33.396Z,40.47
2023-06-11T11:43:15.293Z,38.30
2023-06-11T11:47:01.526Z,33.30
2023-06-11T11:50:46.011Z,32.50
2023-06-11T11:54:28.249Z,32.55
2023-06-11T11:58:12.673Z,31.95
2023-06-11T12:01:58.181Z,29.60
2023-06-11T12:05:40.498Z,26.98
2023-06-11T12:09:22.348Z,32.47
2023-06-11T12:13:04.959Z,29.27
2023-06-11T12:16:50.621Z,25.42
2023-06-11T12:20:33.169Z,25.52
2023-06-11T12:24:18.952Z,29.85
2023-06-11T12:31:43.897Z,29.70
2023-06-11T12:35:31.182Z,26.88
2023-06-11T12:39:14.677Z,28.20
2023-06-11T12:43:00.776Z,27.20
2023-06-11T12:46:43.011Z,25.48
2023-06-11T12:50:27.546Z,24.10
2023-06-11T12:54:11.313Z,25.38
2023-06-11T12:57:53.129Z,22.60
2023-06-11T13:01:35.049Z,23.23
2023-06-11T13:05:16.994Z,23.38
2023-06-11T13:08:59.217Z,20.20
2023-06-11T13:12:41.386Z,20.52
2023-06-11T13:16:23.885Z,20.27
2023-06-11T13:20:06.362Z,18.50
2023-06-11T13:23:48.480Z,18.20
2023-06-11T13:27:30.396Z,18.35
2023-06-11T13:31:13.115Z,20.33
2023-06-11T13:34:55.169Z,17.33
2023-06-11T13:38:37.811Z,18.00
2023-06-11T13:42:19.748Z,19.33
2023-06-11T13:46:01.900Z,20.90
2023-06-11T13:49:43.901Z,17.33
2023-06-11T13:53:25.942Z,20.45
2023-06-11T13:57:07.945Z,16.73
2023-06-11T14:00:53.152Z,19.63
2023-06-11T14:04:36.154Z,16.45
2023-06-11T14:08:19.120Z,16.27
2023-06-11T14:12:01.082Z,14.80
2023-06-11T14:15:42.966Z,15.52
2023-06-11T14:19:24.798Z,13.57
2023-06-11T14:23:06.869Z,14.57
2023-06-11T14:26:48.760Z,14.52
2023-06-11T14:30:30.678Z,14.43
2023-06-11T14:34:12.512Z,12.60
2023-06-11T14:37:57.738Z,15.32
2023-06-11T14:41:41.261Z,15.65
2023-06-11T14:45:23.071Z,13.35
2023-06-11T14:49:11.315Z,10.45
2023-06-11T14:52:53.723Z,11.70
2023-06-11T14:56:35.582Z,9.15
2023-06-11T15:00:17.632Z,9.77
2023-06-11T15:03:59.524Z,10.63
2023-06-11T15:07:41.429Z,6.07
2023-06-11T15:11:23.265Z,6.65
2023-06-11T15:15:06.474Z,7.53
2023-06-11T15:18:48.355Z,5.97
2023-06-11T15:22:30.196Z,6.30
2023-06-11T15:26:12.164Z,6.80
2023-06-11T15:29:54.007Z,7.00
2023-06-11T15:33:35.933Z,3.85
2023-06-11T15:37:18.483Z,5.88
2023-06-11T15:41:00.318Z,5.82
2023-06-11T15:44:42.400Z,5.53
2023-06-11T15:48:25.869Z,5.40
2023-06-11T15:52:08.804Z,5.47
2023-06-11T15:55:50.789Z,5.35
2023-06-11T15:59:32.914Z,8.30
2023-06-11T16:03:15.960Z,7.30
2023-06-11T16:07:00.006Z,9.57
2023-06-11T16:10:41.900Z,6.22
2023-06-11T16:14:23.909Z,5.53
2023-06-11T16:18:05.848Z,7.07
2023-06-11T16:21:48.027Z,6.07
2023-06-11T16:25:30.055Z,5.40
2023-06-11T16:29:11.886Z,6.43
2023-06-11T16:32:53.855Z,7.78
2023-06-11T16:36:36.052Z,4.60
2023-06-11T16:40:18.012Z,5.72
2023-06-11T16:43:59.812Z,5.72
2023-06-11T16:47:41.732Z,4.68
2023-06-11T16:51:23.573Z,5.10
2023-06-11T16:55:06.352Z,4.28
2023-06-11T16:58:48.252Z,7.05
2023-06-11T17:02:33.077Z,4.70
2023-06-11T17:06:15.151Z,5.60
2023-06-11T17:09:56.972Z,5.85
2023-06-11T17:13:38.891Z,5.00
2023-06-11T17:17:20.746Z,4.43
2023-06-11T17:21:02.819Z,5.97
2023-06-11T17:24:44.705Z,4.80
2023-06-11T17:28:27.247Z,3.83
2023-06-11T17:32:09.493Z,5.28
2023-06-11T17:35:53.201Z,3.83
2023-06-11T17:39:35.136Z,3.25
2023-06-11T17:43:17.136Z,3.20
2023-06-11T17:46:59.058Z,4.13
2023-06-11T17:50:40.880Z,6.30
2023-06-11T17:54:22.742Z,5.18
2023-06-11T17:58:04.713Z,5.22
2023-06-11T18:01:46.759Z,3.95
2023-06-11T18:05:32.256Z,3.10
2023-06-11T18:09:14.755Z,3.53
2023-06-11T18:12:56.824Z,6.53
2023-06-11T18:16:38.918Z,4.53
2023-06-11T18:20:20.862Z,3.65
2023-06-11T18:24:02.790Z,6.97
2023-06-11T18:27:44.862Z,4.07
2023-06-11T18:31:26.824Z,4.00
2023-06-11T18:35:09.301Z,3.72
2023-06-11T18:38:51.234Z,4.82
2023-06-11T18:42:33.127Z,4.90
2023-06-11T18:46:15.211Z,4.60
2023-06-11T18:49:57.458Z,4.43
2023-06-11T18:53:39.334Z,6.05
2023-06-11T18:57:21.276Z,5.70
2023-06-11T19:01:03.464Z,9.27
2023-06-11T19:04:45.573Z,4.30
2023-06-11T19:08:27.570Z,3.60
2023-06-11T19:12:11.257Z,4.68
2023-06-11T19:15:55.272Z,2.83
2023-06-11T19:19:38.451Z,3.70
2023-06-11T19:23:21.175Z,2.97
2023-06-11T19:27:03.666Z,3.33
2023-06-11T19:30:46.268Z,3.65
2023-06-11T19:34:28.372Z,3.25
2023-06-11T19:38:10.578Z,2.78
2023-06-11T19:41:52.444Z,3.05
2023-06-11T19:45:34.275Z,2.55
2023-06-11T19:49:16.206Z,2.95
2023-06-11T19:52:58.191Z,3.58
2023-06-11T19:56:40.189Z,3.72
2023-06-11T20:00:22.284Z,4.07
2023-06-11T20:04:04.336Z,4.00
2023-06-11T20:07:46.947Z,2.30
2023-06-11T20:11:29.467Z,4.15
2023-06-11T20:15:11.988Z,6.20
2023-06-11T20:18:54.935Z,3.80
2023-06-11T20:22:37.234Z,4.13
2023-06-11T20:26:19.516Z,7.40
2023-06-11T20:30:01.780Z,5.22
2023-06-11T20:33:43.625Z,4.70
2023-06-11T20:37:25.763Z,3.78
2023-06-11T20:41:07.642Z,3.63
2023-06-11T20:44:49.592Z,7.05
2023-06-11T20:48:31.531Z,4.80
2023-06-11T20:52:13.427Z,5.95
2023-06-11T20:55:55.685Z,5.45
2023-06-11T20:59:37.507Z,7.25
2023-06-11T21:03:19.577Z,7.72
2023-06-11T21:07:01.670Z,10.13
2023-06-11T21:10:43.521Z,6.03
2023-06-11T21:14:28.603Z,7.97
2023-06-11T21:18:10.635Z,6.32
2023-06-11T21:21:52.524Z,7.13
2023-06-11T21:25:34.673Z,10.13
2023-06-11T21:29:16.552Z,7.88
2023-06-11T21:32:58.510Z,9.10
2023-06-11T21:36:40.343Z,14.25
2023-06-11T21:40:22.446Z,10.70
2023-06-11T21:44:04.501Z,7.75
2023-06-11T21:47:46.450Z,12.10
2023-06-11T21:51:30.358Z,11.27
2023-06-11T21:55:12.304Z,12.63
2023-06-11T21:58:54.106Z,8.57
2023-06-11T22:02:36.013Z,7.55
2023-06-11T22:06:17.924Z,11.10
2023-06-11T22:10:00.193Z,12.15
2023-06-11T22:13:42.001Z,9.13
2023-06-11T22:17:28.016Z,9.68
2023-06-11T22:21:10.128Z,14.10
2023-06-11T22:24:53.665Z,11.65
2023-06-11T22:28:36.841Z,10.80
2023-06-11T22:32:18.770Z,11.85
2023-06-11T22:36:00.609Z,14.45
2023-06-11T22:39:42.449Z,10.98
2023-06-11T22:43:24.287Z,11.02
2023-06-11T22:47:06.694Z,11.55
2023-06-11T22:50:48.683Z,10.88
2023-06-11T22:54:30.663Z,11.57
2023-06-11T22:58:12.643Z,12.68
2023-06-11T23:01:54.575Z,12.13
2023-06-11T23:05:37.616Z,13.20
2023-06-11T23:09:20.900Z,13.00
2023-06-11T23:13:02.714Z,14.00
2023-06-11T23:16:48.966Z,13.32
2023-06-11T23:20:31.676Z,10.27
2023-06-11T23:24:13.929Z,11.77
2023-06-11T23:27:56.055Z,11.23
2023-06-11T23:31:40.172Z,13.20
2023-06-11T23:35:22.742Z,12.20
2023-06-11T23:39:04.694Z,14.68
2023-06-11T23:42:46.854Z,9.43
2023-06-11T23:46:28.843Z,11.98
2023-06-11T23:50:11.354Z,13.65
2023-06-11T23:53:53.898Z,11.57
2023-06-11T23:57:37.730Z,10.00
